Terminal Aerodrome Forecast
Issued by NWS

Home | Current Version | Previous Version | Text Only | Print | Product List | Glossary On
Versions: 1 2 3 4 5 6 7 8 9 10 11 12 13 14 15 16
000
FTUS43 KGRR 210500
TAFMKG
TAF
KMKG 210540Z 2106/2206 13005KT 4SM -SN BR OVC015
     FM211000 20003KT 4SM BR OVC009
     FM211500 17008KT 4SM BR OVC015
     FM220000 15010KT 4SM HZ OVC025=

USA.gov is the U.S. government's official web portal to all federal, state and local government web resources and services.